sensor_id;sensor_type;location;lat;lon;timestamp;pressure;altitude;pressure_sealevel;temperature;humidity
22653;BME280;11493;43.344;26.226;2023-02-10T00:01:03;101588.22;;;-9.73;88.30
22653;BME280;11493;43.344;26.226;2023-02-10T00:03:30;101599.25;;;-9.77;88.52
22653;BME280;11493;43.344;26.226;2023-02-10T00:05:57;101590.44;;;-9.78;89.02
22653;BME280;11493;43.344;26.226;2023-02-10T00:08:24;101568.31;;;-9.89;89.27
22653;BME280;11493;43.344;26.226;2023-02-10T00:10:51;101581.59;;;-9.78;89.00
22653;BME280;11493;43.344;26.226;2023-02-10T00:13:19;101585.81;;;-9.76;88.99
22653;BME280;11493;43.344;26.226;2023-02-10T00:15:46;101576.00;;;-9.75;89.10
22653;BME280;11493;43.344;26.226;2023-02-10T00:18:13;101572.88;;;-9.80;88.46
22653;BME280;11493;43.344;26.226;2023-02-10T00:20:40;101561.06;;;-9.87;89.01
22653;BME280;11493;43.344;26.226;2023-02-10T00:23:07;101576.97;;;-9.76;88.69
22653;BME280;11493;43.344;26.226;2023-02-10T00:25:37;101577.25;;;-9.79;88.34
22653;BME280;11493;43.344;26.226;2023-02-10T00:28:04;101585.09;;;-9.78;88.33
22653;BME280;11493;43.344;26.226;2023-02-10T00:30:31;101552.47;;;-9.91;87.67
22653;BME280;11493;43.344;26.226;2023-02-10T00:32:58;101570.47;;;-9.83;87.63
22653;BME280;11493;43.344;26.226;2023-02-10T00:35:25;101561.25;;;-9.79;87.43
22653;BME280;11493;43.344;26.226;2023-02-10T00:37:52;101562.47;;;-9.83;86.78
22653;BME280;11493;43.344;26.226;2023-02-10T00:40:19;101561.91;;;-9.87;86.89
22653;BME280;11493;43.344;26.226;2023-02-10T00:42:46;101561.56;;;-9.93;86.51
22653;BME280;11493;43.344;26.226;2023-02-10T00:45:13;101550.94;;;-10.05;87.18
22653;BME280;11493;43.344;26.226;2023-02-10T00:47:40;101545.16;;;-10.10;87.68
22653;BME280;11493;43.344;26.226;2023-02-10T00:50:07;101558.56;;;-10.00;87.38
22653;BME280;11493;43.344;26.226;2023-02-10T00:52:34;101534.25;;;-10.07;86.84
22653;BME280;11493;43.344;26.226;2023-02-10T00:55:02;101528.00;;;-10.17;86.52
22653;BME280;11493;43.344;26.226;2023-02-10T00:57:29;101536.47;;;-10.12;86.85
22653;BME280;11493;43.344;26.226;2023-02-10T00:59:55;101552.69;;;-10.15;86.31
22653;BME280;11493;43.344;26.226;2023-02-10T01:02:22;101559.22;;;-10.19;86.76
22653;BME280;11493;43.344;26.226;2023-02-10T01:04:49;101556.25;;;-10.25;86.28
22653;BME280;11493;43.344;26.226;2023-02-10T01:07:16;101547.75;;;-10.40;86.02
22653;BME280;11493;43.344;26.226;2023-02-10T01:09:43;101529.53;;;-10.56;86.37
22653;BME280;11493;43.344;26.226;2023-02-10T01:12:10;101535.22;;;-10.60;86.04
22653;BME280;11493;43.344;26.226;2023-02-10T01:14:37;101548.50;;;-10.60;86.58
22653;BME280;11493;43.344;26.226;2023-02-10T01:17:04;101530.63;;;-10.70;86.94
22653;BME280;11493;43.344;26.226;2023-02-10T01:19:31;101533.16;;;-10.68;86.68
22653;BME280;11493;43.344;26.226;2023-02-10T01:21:58;101518.91;;;-10.67;86.91
22653;BME280;11493;43.344;26.226;2023-02-10T01:24:25;101524.41;;;-10.48;87.33
22653;BME280;11493;43.344;26.226;2023-02-10T01:26:54;101512.97;;;-10.59;86.67
22653;BME280;11493;43.344;26.226;2023-02-10T01:29:21;101504.75;;;-10.68;86.68
22653;BME280;11493;43.344;26.226;2023-02-10T01:31:48;101526.84;;;-10.56;86.84
22653;BME280;11493;43.344;26.226;2023-02-10T01:34:15;101501.84;;;-10.65;86.84
22653;BME280;11493;43.344;26.226;2023-02-10T01:36:46;101514.78;;;-10.60;86.59
22653;BME280;11493;43.344;26.226;2023-02-10T01:39:13;101502.69;;;-10.64;86.70
22653;BME280;11493;43.344;26.226;2023-02-10T01:41:41;101519.97;;;-10.58;86.06
22653;BME280;11493;43.344;26.226;2023-02-10T01:46:48;101528.44;;;-10.65;85.49
22653;BME280;11493;43.344;26.226;2023-02-10T01:49:18;101526.16;;;-10.69;85.00
22653;BME280;11493;43.344;26.226;2023-02-10T01:52:12;101529.53;;;-10.67;85.15
22653;BME280;11493;43.344;26.226;2023-02-10T01:54:44;101513.84;;;-10.81;85.05
22653;BME280;11493;43.344;26.226;2023-02-10T01:57:12;101506.84;;;-10.93;85.82
22653;BME280;11493;43.344;26.226;2023-02-10T01:59:42;101505.16;;;-10.95;85.93
22653;BME280;11493;43.344;26.226;2023-02-10T02:02:11;101511.94;;;-10.90;85.59
22653;BME280;11493;43.344;26.226;2023-02-10T02:04:49;101500.09;;;-10.98;86.10
22653;BME280;11493;43.344;26.226;2023-02-10T02:07:18;101493.19;;;-10.89;85.96
22653;BME280;11493;43.344;26.226;2023-02-10T02:09:47;101480.75;;;-11.00;86.48
22653;BME280;11493;43.344;26.226;2023-02-10T02:15:01;101473.03;;;-11.03;86.73
22653;BME280;11493;43.344;26.226;2023-02-10T02:17:37;101487.88;;;-10.89;86.89
22653;BME280;11493;43.344;26.226;2023-02-10T02:32:06;101498.75;;;-10.92;86.16
22653;BME280;11493;43.344;26.226;2023-02-10T02:37:26;101506.50;;;-11.00;85.27
22653;BME280;11493;43.344;26.226;2023-02-10T02:39:55;101492.97;;;-11.08;85.00
22653;BME280;11493;43.344;26.226;2023-02-10T02:45:10;101510.84;;;-11.10;85.20
22653;BME280;11493;43.344;26.226;2023-02-10T02:47:44;101500.75;;;-11.16;85.05
22653;BME280;11493;43.344;26.226;2023-02-10T02:50:38;101507.50;;;-11.23;85.31
22653;BME280;11493;43.344;26.226;2023-02-10T02:58:48;101488.19;;;-11.37;85.35
22653;BME280;11493;43.344;26.226;2023-02-10T03:01:30;101471.75;;;-11.64;84.89
22653;BME280;11493;43.344;26.226;2023-02-10T03:03:59;101489.63;;;-11.44;85.77
22653;BME280;11493;43.344;26.226;2023-02-10T03:06:26;101472.13;;;-11.46;86.08
22653;BME280;11493;43.344;26.226;2023-02-10T03:08:53;101486.00;;;-11.43;85.82
22653;BME280;11493;43.344;26.226;2023-02-10T03:11:20;101485.75;;;-11.29;85.77
22653;BME280;11493;43.344;26.226;2023-02-10T03:13:47;101486.25;;;-11.35;85.79
22653;BME280;11493;43.344;26.226;2023-02-10T03:16:14;101473.56;;;-11.42;85.32
22653;BME280;11493;43.344;26.226;2023-02-10T03:18:41;101480.31;;;-11.38;85.52
22653;BME280;11493;43.344;26.226;2023-02-10T03:21:08;101479.59;;;-11.40;85.96
22653;BME280;11493;43.344;26.226;2023-02-10T03:23:35;101465.59;;;-11.42;85.60
22653;BME280;11493;43.344;26.226;2023-02-10T03:26:02;101464.38;;;-11.49;86.29
22653;BME280;11493;43.344;26.226;2023-02-10T03:28:29;101475.75;;;-11.36;86.10
22653;BME280;11493;43.344;26.226;2023-02-10T03:30:56;101480.94;;;-11.35;85.72
22653;BME280;11493;43.344;26.226;2023-02-10T03:33:23;101470.44;;;-11.36;86.08
22653;BME280;11493;43.344;26.226;2023-02-10T03:35:50;101482.63;;;-11.34;86.24
22653;BME280;11493;43.344;26.226;2023-02-10T03:38:20;101476.09;;;-11.30;85.90
22653;BME280;11493;43.344;26.226;2023-02-10T03:40:51;101468.97;;;-11.29;86.29
22653;BME280;11493;43.344;26.226;2023-02-10T03:43:19;101462.41;;;-11.14;86.47
22653;BME280;11493;43.344;26.226;2023-02-10T03:45:47;101462.88;;;-11.09;86.21
22653;BME280;11493;43.344;26.226;2023-02-10T03:48:14;101460.59;;;-11.13;86.31
22653;BME280;11493;43.344;26.226;2023-02-10T03:50:43;101465.31;;;-11.06;86.17
22653;BME280;11493;43.344;26.226;2023-02-10T03:53:11;101445.59;;;-10.92;85.43
22653;BME280;11493;43.344;26.226;2023-02-10T03:55:37;101437.75;;;-11.05;85.30
22653;BME280;11493;43.344;26.226;2023-02-10T03:58:04;101448.97;;;-11.01;85.97
22653;BME280;11493;43.344;26.226;2023-02-10T04:00:31;101457.81;;;-11.01;85.79
22653;BME280;11493;43.344;26.226;2023-02-10T04:02:58;101450.97;;;-11.14;86.19
22653;BME280;11493;43.344;26.226;2023-02-10T04:05:25;101451.38;;;-10.98;86.51
22653;BME280;11493;43.344;26.226;2023-02-10T04:07:52;101449.47;;;-10.96;87.16
22653;BME280;11493;43.344;26.226;2023-02-10T04:10:19;101447.63;;;-10.84;86.72
22653;BME280;11493;43.344;26.226;2023-02-10T04:12:48;101453.88;;;-10.74;86.03
22653;BME280;11493;43.344;26.226;2023-02-10T04:15:15;101448.97;;;-10.90;86.28
22653;BME280;11493;43.344;26.226;2023-02-10T04:17:42;101454.16;;;-11.00;86.27
22653;BME280;11493;43.344;26.226;2023-02-10T04:20:10;101441.50;;;-11.07;86.39
22653;BME280;11493;43.344;26.226;2023-02-10T04:22:37;101430.66;;;-11.15;86.80
22653;BME280;11493;43.344;26.226;2023-02-10T04:25:05;101427.06;;;-11.25;86.75
22653;BME280;11493;43.344;26.226;2023-02-10T04:27:32;101447.59;;;-11.16;86.36
22653;BME280;11493;43.344;26.226;2023-02-10T04:29:59;101446.25;;;-11.22;86.21
22653;BME280;11493;43.344;26.226;2023-02-10T04:32:26;101429.97;;;-11.29;85.76
22653;BME280;11493;43.344;26.226;2023-02-10T04:34:53;101432.03;;;-11.32;85.37
22653;BME280;11493;43.344;26.226;2023-02-10T04:37:21;101436.00;;;-11.38;85.20
22653;BME280;11493;43.344;26.226;2023-02-10T04:39:48;101434.19;;;-11.48;85.07
22653;BME280;11493;43.344;26.226;2023-02-10T04:42:15;101436.63;;;-11.56;84.41
22653;BME280;11493;43.344;26.226;2023-02-10T04:44:42;101433.84;;;-11.66;84.64
22653;BME280;11493;43.344;26.226;2023-02-10T04:47:09;101439.25;;;-11.68;84.48
22653;BME280;11493;43.344;26.226;2023-02-10T04:49:36;101440.84;;;-11.65;84.40
22653;BME280;11493;43.344;26.226;2023-02-10T04:52:03;101435.41;;;-11.75;84.34
22653;BME280;11493;43.344;26.226;2023-02-10T04:54:29;101444.47;;;-11.77;84.04
22653;BME280;11493;43.344;26.226;2023-02-10T04:56:56;101450.00;;;-11.69;84.58
22653;BME280;11493;43.344;26.226;2023-02-10T04:59:23;101449.06;;;-11.79;84.88
22653;BME280;11493;43.344;26.226;2023-02-10T05:01:50;101452.91;;;-11.83;85.23
22653;BME280;11493;43.344;26.226;2023-02-10T05:04:17;101460.66;;;-11.80;84.94
22653;BME280;11493;43.344;26.226;2023-02-10T05:06:45;101461.84;;;-11.84;85.40
22653;BME280;11493;43.344;26.226;2023-02-10T05:09:12;101453.16;;;-11.86;84.80
22653;BME280;11493;43.344;26.226;2023-02-10T05:11:39;101455.81;;;-11.86;84.90
22653;BME280;11493;43.344;26.226;2023-02-10T05:14:06;101452.56;;;-11.90;85.10
22653;BME280;11493;43.344;26.226;2023-02-10T05:16:33;101464.03;;;-11.89;85.78
22653;BME280;11493;43.344;26.226;2023-02-10T05:19:00;101456.53;;;-11.84;86.34
22653;BME280;11493;43.344;26.226;2023-02-10T05:21:28;101447.38;;;-11.80;86.14
22653;BME280;11493;43.344;26.226;2023-02-10T05:23:57;101450.38;;;-11.74;85.66
22653;BME280;11493;43.344;26.226;2023-02-10T05:26:24;101446.88;;;-11.74;85.34
22653;BME280;11493;43.344;26.226;2023-02-10T05:28:51;101451.31;;;-11.75;84.99
22653;BME280;11493;43.344;26.226;2023-02-10T05:31:18;101456.91;;;-11.78;84.62
22653;BME280;11493;43.344;26.226;2023-02-10T05:33:45;101451.22;;;-11.84;84.76
22653;BME280;11493;43.344;26.226;2023-02-10T05:36:12;101462.56;;;-11.82;84.85
22653;BME280;11493;43.344;26.226;2023-02-10T05:38:39;101462.56;;;-11.82;84.41
22653;BME280;11493;43.344;26.226;2023-02-10T05:41:26;101441.34;;;-11.93;84.46
22653;BME280;11493;43.344;26.226;2023-02-10T05:43:53;101457.50;;;-11.85;84.54
22653;BME280;11493;43.344;26.226;2023-02-10T05:46:20;101426.84;;;-12.01;84.35
22653;BME280;11493;43.344;26.226;2023-02-10T05:48:48;101457.38;;;-11.73;84.74
22653;BME280;11493;43.344;26.226;2023-02-10T05:51:14;101439.50;;;-11.71;84.78
22653;BME280;11493;43.344;26.226;2023-02-10T05:53:41;101464.72;;;-11.65;84.64
22653;BME280;11493;43.344;26.226;2023-02-10T05:56:09;101465.94;;;-11.58;84.85
22653;BME280;11493;43.344;26.226;2023-02-10T05:58:36;101450.25;;;-11.61;84.50
22653;BME280;11493;43.344;26.226;2023-02-10T06:01:06;101464.03;;;-11.45;85.51
22653;BME280;11493;43.344;26.226;2023-02-10T06:03:34;101462.94;;;-11.42;85.31
22653;BME280;11493;43.344;26.226;2023-02-10T06:06:02;101463.78;;;-11.31;85.19
22653;BME280;11493;43.344;26.226;2023-02-10T06:08:29;101456.16;;;-11.24;85.47
22653;BME280;11493;43.344;26.226;2023-02-10T06:10:56;101466.06;;;-11.15;85.70
22653;BME280;11493;43.344;26.226;2023-02-10T06:13:23;101466.75;;;-11.13;85.60
22653;BME280;11493;43.344;26.226;2023-02-10T06:15:50;101465.91;;;-11.02;85.67
22653;BME280;11493;43.344;26.226;2023-02-10T06:18:17;101474.34;;;-10.86;86.17
22653;BME280;11493;43.344;26.226;2023-02-10T06:20:47;101477.44;;;-10.70;85.58
22653;BME280;11493;43.344;26.226;2023-02-10T06:23:14;101482.50;;;-10.67;85.29
22653;BME280;11493;43.344;26.226;2023-02-10T06:25:41;101456.97;;;-10.58;85.18
22653;BME280;11493;43.344;26.226;2023-02-10T06:28:08;101485.53;;;-10.18;84.05
22653;BME280;11493;43.344;26.226;2023-02-10T06:30:35;101489.75;;;-10.16;84.25
22653;BME280;11493;43.344;26.226;2023-02-10T06:33:03;101481.00;;;-10.07;84.44
22653;BME280;11493;43.344;26.226;2023-02-10T06:35:30;101480.38;;;-9.78;83.31
22653;BME280;11493;43.344;26.226;2023-02-10T06:37:57;101484.16;;;-9.50;82.96
22653;BME280;11493;43.344;26.226;2023-02-10T06:40:24;101485.56;;;-9.46;82.43
22653;BME280;11493;43.344;26.226;2023-02-10T06:42:51;101502.50;;;-9.26;82.39
22653;BME280;11493;43.344;26.226;2023-02-10T06:45:18;101498.22;;;-9.08;82.12
22653;BME280;11493;43.344;26.226;2023-02-10T06:47:45;101488.81;;;-9.12;82.02
22653;BME280;11493;43.344;26.226;2023-02-10T06:50:12;101499.25;;;-8.90;82.08
22653;BME280;11493;43.344;26.226;2023-02-10T06:52:40;101495.91;;;-8.82;81.73
22653;BME280;11493;43.344;26.226;2023-02-10T06:55:07;101507.44;;;-8.72;81.21
22653;BME280;11493;43.344;26.226;2023-02-10T06:57:37;101510.31;;;-8.54;81.88
22653;BME280;11493;43.344;26.226;2023-02-10T07:00:07;101517.75;;;-8.29;81.58
22653;BME280;11493;43.344;26.226;2023-02-10T07:02:36;101517.75;;;-8.29;80.77
22653;BME280;11493;43.344;26.226;2023-02-10T07:05:05;101512.56;;;-8.21;80.84
22653;BME280;11493;43.344;26.226;2023-02-10T07:07:34;101507.91;;;-8.29;81.01
22653;BME280;11493;43.344;26.226;2023-02-10T07:10:02;101486.69;;;-8.20;81.00
22653;BME280;11493;43.344;26.226;2023-02-10T07:12:29;101497.06;;;-8.08;80.89
22653;BME280;11493;43.344;26.226;2023-02-10T07:14:56;101481.31;;;-8.11;80.68
22653;BME280;11493;43.344;26.226;2023-02-10T07:17:23;101490.75;;;-7.97;80.47
22653;BME280;11493;43.344;26.226;2023-02-10T07:19:51;101490.31;;;-7.92;80.58
22653;BME280;11493;43.344;26.226;2023-02-10T07:22:18;101483.56;;;-7.87;80.66
22653;BME280;11493;43.344;26.226;2023-02-10T07:24:47;101496.06;;;-7.68;80.98
22653;BME280;11493;43.344;26.226;2023-02-10T07:27:14;101486.00;;;-7.47;80.96
22653;BME280;11493;43.344;26.226;2023-02-10T07:29:41;101490.56;;;-7.30;80.78
22653;BME280;11493;43.344;26.226;2023-02-10T07:32:07;101483.31;;;-7.10;80.60
22653;BME280;11493;43.344;26.226;2023-02-10T07:34:34;101503.28;;;-7.04;80.27
22653;BME280;11493;43.344;26.226;2023-02-10T07:37:02;101497.91;;;-6.94;81.45
22653;BME280;11493;43.344;26.226;2023-02-10T07:39:29;101493.91;;;-6.63;81.35
22653;BME280;11493;43.344;26.226;2023-02-10T07:41:56;101500.91;;;-6.35;81.08
22653;BME280;11493;43.344;26.226;2023-02-10T07:44:33;101494.88;;;-6.19;80.48
22653;BME280;11493;43.344;26.226;2023-02-10T07:47:00;101477.66;;;-6.16;80.79
22653;BME280;11493;43.344;26.226;2023-02-10T07:49:27;101478.25;;;-6.05;80.95
22653;BME280;11493;43.344;26.226;2023-02-10T07:51:56;101482.16;;;-5.99;79.59
22653;BME280;11493;43.344;26.226;2023-02-10T07:54:23;101488.81;;;-6.03;81.65
22653;BME280;11493;43.344;26.226;2023-02-10T07:56:50;101476.34;;;-5.94;81.61
22653;BME280;11493;43.344;26.226;2023-02-10T07:59:17;101482.50;;;-5.68;81.64
22653;BME280;11493;43.344;26.226;2023-02-10T08:01:44;101483.38;;;-5.42;81.53
22653;BME280;11493;43.344;26.226;2023-02-10T08:04:12;101489.69;;;-5.25;80.64
22653;BME280;11493;43.344;26.226;2023-02-10T08:06:39;101488.56;;;-5.06;79.98
22653;BME280;11493;43.344;26.226;2023-02-10T08:09:07;101458.72;;;-5.03;80.03
22653;BME280;11493;43.344;26.226;2023-02-10T08:11:34;101481.28;;;-4.88;80.10
22653;BME280;11493;43.344;26.226;2023-02-10T08:14:02;101465.53;;;-4.83;80.11
22653;BME280;11493;43.344;26.226;2023-02-10T08:16:29;101468.78;;;-4.63;80.26
22653;BME280;11493;43.344;26.226;2023-02-10T08:18:56;101476.53;;;-4.36;80.27
22653;BME280;11493;43.344;26.226;2023-02-10T08:21:25;101472.53;;;-4.15;79.77
22653;BME280;11493;43.344;26.226;2023-02-10T08:23:53;101459.78;;;-3.97;78.47
22653;BME280;11493;43.344;26.226;2023-02-10T08:26:23;101485.31;;;-3.69;78.35
22653;BME280;11493;43.344;26.226;2023-02-10T08:28:50;101471.50;;;-3.66;77.89
22653;BME280;11493;43.344;26.226;2023-02-10T08:31:18;101479.91;;;-3.44;77.34
22653;BME280;11493;43.344;26.226;2023-02-10T08:33:45;101466.44;;;-3.36;77.32
22653;BME280;11493;43.344;26.226;2023-02-10T08:36:15;101469.44;;;-3.23;77.16
22653;BME280;11493;43.344;26.226;2023-02-10T08:38:45;101481.00;;;-3.06;76.43
22653;BME280;11493;43.344;26.226;2023-02-10T08:41:13;101492.19;;;-2.86;76.93
22653;BME280;11493;43.344;26.226;2023-02-10T08:43:40;101469.78;;;-2.87;76.12
22653;BME280;11493;43.344;26.226;2023-02-10T08:46:08;101471.97;;;-2.82;76.69
22653;BME280;11493;43.344;26.226;2023-02-10T08:48:35;101490.53;;;-2.56;76.46
22653;BME280;11493;43.344;26.226;2023-02-10T08:51:08;101478.56;;;-2.54;76.57
22653;BME280;11493;43.344;26.226;2023-02-10T08:53:36;101486.75;;;-2.39;76.85
22653;BME280;11493;43.344;26.226;2023-02-10T08:56:06;101474.72;;;-2.28;76.29
22653;BME280;11493;43.344;26.226;2023-02-10T08:58:34;101471.22;;;-2.14;76.49
22653;BME280;11493;43.344;26.226;2023-02-10T09:01:07;101478.84;;;-1.95;75.85
22653;BME280;11493;43.344;26.226;2023-02-10T09:03:34;101475.22;;;-1.87;75.83
22653;BME280;11493;43.344;26.226;2023-02-10T09:06:02;101476.41;;;-1.67;75.70
22653;BME280;11493;43.344;26.226;2023-02-10T09:08:29;101472.63;;;-1.58;74.76
22653;BME280;11493;43.344;26.226;2023-02-10T09:10:56;101460.97;;;-1.58;74.85
22653;BME280;11493;43.344;26.226;2023-02-10T09:13:24;101466.84;;;-1.55;74.12
22653;BME280;11493;43.344;26.226;2023-02-10T09:15:51;101442.00;;;-1.50;73.99
22653;BME280;11493;43.344;26.226;2023-02-10T09:18:18;101449.44;;;-1.23;73.52
22653;BME280;11493;43.344;26.226;2023-02-10T09:20:45;101458.69;;;-1.17;72.73
22653;BME280;11493;43.344;26.226;2023-02-10T09:23:13;101442.75;;;-1.12;71.78
22653;BME280;11493;43.344;26.226;2023-02-10T09:25:39;101452.16;;;-1.08;71.27
22653;BME280;11493;43.344;26.226;2023-02-10T09:28:07;101457.38;;;-1.21;70.56
22653;BME280;11493;43.344;26.226;2023-02-10T09:30:35;101433.06;;;-1.21;70.21
22653;BME280;11493;43.344;26.226;2023-02-10T09:33:02;101441.81;;;-1.05;68.93
22653;BME280;11493;43.344;26.226;2023-02-10T09:35:29;101440.50;;;-1.09;68.56
22653;BME280;11493;43.344;26.226;2023-02-10T09:37:57;101423.19;;;-1.14;67.99
22653;BME280;11493;43.344;26.226;2023-02-10T09:40:31;101432.78;;;-0.97;67.56
22653;BME280;11493;43.344;26.226;2023-02-10T09:43:05;101447.06;;;-0.67;67.64
22653;BME280;11493;43.344;26.226;2023-02-10T09:45:36;101434.38;;;-0.67;68.03
22653;BME280;11493;43.344;26.226;2023-02-10T09:48:32;101440.88;;;-0.82;66.80
22653;BME280;11493;43.344;26.226;2023-02-10T09:54:09;101437.72;;;-0.64;66.32
22653;BME280;11493;43.344;26.226;2023-02-10T09:56:37;101433.50;;;-0.52;65.61
22653;BME280;11493;43.344;26.226;2023-02-10T09:59:07;101444.47;;;-0.39;65.29
22653;BME280;11493;43.344;26.226;2023-02-10T10:01:42;101432.81;;;-0.40;65.04
22653;BME280;11493;43.344;26.226;2023-02-10T10:04:16;101429.22;;;-0.25;64.09
22653;BME280;11493;43.344;26.226;2023-02-10T10:07:31;101432.84;;;-0.18;63.86
22653;BME280;11493;43.344;26.226;2023-02-10T10:09:43;101436.25;;;-0.10;62.60
22653;BME280;11493;43.344;26.226;2023-02-10T10:12:15;101429.56;;;-0.14;61.99
22653;BME280;11493;43.344;26.226;2023-02-10T10:14:43;101424.53;;;-0.17;62.02
22653;BME280;11493;43.344;26.226;2023-02-10T10:17:29;101405.72;;;-0.25;61.52
22653;BME280;11493;43.344;26.226;2023-02-10T10:20:28;101411.19;;;-0.18;61.68
22653;BME280;11493;43.344;26.226;2023-02-10T10:26:07;101410.38;;;0.09;63.20
22653;BME280;11493;43.344;26.226;2023-02-10T10:32:17;101404.69;;;0.25;61.01
22653;BME280;11493;43.344;26.226;2023-02-10T10:34:54;101392.81;;;0.26;61.39
22653;BME280;11493;43.344;26.226;2023-02-10T10:37:24;101387.25;;;0.35;61.25
22653;BME280;11493;43.344;26.226;2023-02-10T10:40:23;101391.38;;;0.58;61.16
22653;BME280;11493;43.344;26.226;2023-02-10T10:43:00;101382.22;;;0.59;60.74
22653;BME280;11493;43.344;26.226;2023-02-10T10:45:35;101370.25;;;0.47;60.53
22653;BME280;11493;43.344;26.226;2023-02-10T10:48:21;101378.00;;;0.50;59.47
22653;BME280;11493;43.344;26.226;2023-02-10T10:50:57;101374.69;;;0.55;58.92
22653;BME280;11493;43.344;26.226;2023-02-10T10:53:51;101367.00;;;0.58;60.59
22653;BME280;11493;43.344;26.226;2023-02-10T10:58:46;101362.63;;;0.57;60.51
22653;BME280;11493;43.344;26.226;2023-02-10T11:01:15;101359.72;;;0.59;61.47
22653;BME280;11493;43.344;26.226;2023-02-10T11:03:42;101344.31;;;0.66;61.43
22653;BME280;11493;43.344;26.226;2023-02-10T11:06:13;101358.16;;;0.84;61.88
22653;BME280;11493;43.344;26.226;2023-02-10T11:09:00;101346.25;;;0.79;60.55
22653;BME280;11493;43.344;26.226;2023-02-10T11:11:41;101278.56;;;0.44;60.48
22653;BME280;11493;43.344;26.226;2023-02-10T11:16:52;101333.75;;;0.84;61.41
22653;BME280;11493;43.344;26.226;2023-02-10T11:19:25;101331.91;;;0.91;61.95
22653;BME280;11493;43.344;26.226;2023-02-10T11:21:55;101328.78;;;0.94;62.82
22653;BME280;11493;43.344;26.226;2023-02-10T11:29:30;101326.59;;;1.18;60.02
22653;BME280;11493;43.344;26.226;2023-02-10T11:31:58;101322.41;;;1.22;60.63
22653;BME280;11493;43.344;26.226;2023-02-10T11:34:29;101315.94;;;1.16;59.18
22653;BME280;11493;43.344;26.226;2023-02-10T11:36:59;101312.44;;;1.36;59.08
22653;BME280;11493;43.344;26.226;2023-02-10T11:39:38;101300.56;;;1.37;59.03
22653;BME280;11493;43.344;26.226;2023-02-10T11:42:11;101311.63;;;1.48;58.38
22653;BME280;11493;43.344;26.226;2023-02-10T11:44:52;101240.03;;;1.36;57.88
22653;BME280;11493;43.344;26.226;2023-02-10T11:47:19;101298.06;;;1.75;56.10
22653;BME280;11493;43.344;26.226;2023-02-10T11:49:48;101293.66;;;1.54;55.04
22653;BME280;11493;43.344;26.226;2023-02-10T11:52:21;101292.44;;;1.43;54.16
22653;BME280;11493;43.344;26.226;2023-02-10T11:54:51;101292.00;;;1.46;53.85
22653;BME280;11493;43.344;26.226;2023-02-10T12:11:46;101280.53;;;1.71;51.40
22653;BME280;11493;43.344;26.226;2023-02-10T12:20:52;101256.72;;;1.92;51.26
22653;BME280;11493;43.344;26.226;2023-02-10T12:23:32;101262.13;;;1.99;50.15
22653;BME280;11493;43.344;26.226;2023-02-10T12:54:23;101251.03;;;2.14;50.20
22653;BME280;11493;43.344;26.226;2023-02-10T13:02:47;101235.19;;;1.97;50.23
22653;BME280;11493;43.344;26.226;2023-02-10T13:05:19;101228.97;;;1.71;52.94
22653;BME280;11493;43.344;26.226;2023-02-10T13:07:51;101248.38;;;1.68;52.61
22653;BME280;11493;43.344;26.226;2023-02-10T13:10:36;101250.66;;;1.77;52.09
22653;BME280;11493;43.344;26.226;2023-02-10T13:13:14;101229.16;;;1.82;52.30
22653;BME280;11493;43.344;26.226;2023-02-10T13:15:46;101240.63;;;1.84;52.88
22653;BME280;11493;43.344;26.226;2023-02-10T13:18:19;101255.69;;;1.74;52.86
22653;BME280;11493;43.344;26.226;2023-02-10T13:20:55;101247.53;;;1.80;51.76
22653;BME280;11493;43.344;26.226;2023-02-10T13:34:30;101240.63;;;1.97;51.52
22653;BME280;11493;43.344;26.226;2023-02-10T13:37:10;101232.28;;;1.86;50.99
22653;BME280;11493;43.344;26.226;2023-02-10T13:39:49;101228.94;;;1.97;50.41
22653;BME280;11493;43.344;26.226;2023-02-10T13:45:21;101233.97;;;1.67;50.04
22653;BME280;11493;43.344;26.226;2023-02-10T13:47:48;101240.22;;;1.61;50.05
22653;BME280;11493;43.344;26.226;2023-02-10T13:50:20;101237.72;;;1.59;49.83
22653;BME280;11493;43.344;26.226;2023-02-10T13:52:54;101235.44;;;1.70;49.92
22653;BME280;11493;43.344;26.226;2023-02-10T13:55:35;101240.44;;;1.73;49.64
22653;BME280;11493;43.344;26.226;2023-02-10T14:00:42;101219.41;;;1.42;49.50
22653;BME280;11493;43.344;26.226;2023-02-10T14:05:49;101241.72;;;1.30;47.84
22653;BME280;11493;43.344;26.226;2023-02-10T14:19:05;101249.84;;;1.37;48.43
22653;BME280;11493;43.344;26.226;2023-02-10T14:21:42;101248.81;;;1.31;48.44
22653;BME280;11493;43.344;26.226;2023-02-10T14:24:16;101241.94;;;1.36;49.38
22653;BME280;11493;43.344;26.226;2023-02-10T14:26:55;101236.47;;;1.16;48.48
22653;BME280;11493;43.344;26.226;2023-02-10T14:29:25;101230.63;;;1.12;50.75
22653;BME280;11493;43.344;26.226;2023-02-10T14:31:56;101241.88;;;1.09;51.78
22653;BME280;11493;43.344;26.226;2023-02-10T14:34:30;101203.25;;;0.81;52.66
22653;BME280;11493;43.344;26.226;2023-02-10T14:36:58;101233.97;;;1.08;52.70
22653;BME280;11493;43.344;26.226;2023-02-10T14:39:28;101228.94;;;0.98;53.52
22653;BME280;11493;43.344;26.226;2023-02-10T14:41:58;101238.09;;;0.97;54.98
22653;BME280;11493;43.344;26.226;2023-02-10T14:44:33;101227.25;;;0.97;55.10
22653;BME280;11493;43.344;26.226;2023-02-10T14:47:01;101221.81;;;0.90;55.88
22653;BME280;11493;43.344;26.226;2023-02-10T14:49:29;101233.50;;;0.91;55.90
22653;BME280;11493;43.344;26.226;2023-02-10T14:52:02;101239.75;;;0.85;57.08
22653;BME280;11493;43.344;26.226;2023-02-10T14:54:37;101232.22;;;0.67;56.81
22653;BME280;11493;43.344;26.226;2023-02-10T14:57:11;101234.47;;;0.57;57.10
22653;BME280;11493;43.344;26.226;2023-02-10T14:59:39;101233.81;;;0.48;57.42
22653;BME280;11493;43.344;26.226;2023-02-10T15:02:22;101220.63;;;0.39;57.51
22653;BME280;11493;43.344;26.226;2023-02-10T15:04:52;101235.88;;;0.46;57.38